Terminal Aerodrome Forecast
Issued by NWS Twin Cities, MN

Home | Current Version | Previous Version | Text Only | Print | Product List | Glossary Off
Versions: 1 2 3 4 5 6 7 8 9 10 11 12 13 14 15 16

417
FTUS43 KMPX 161120
TAFSTC
TAF
KSTC 161120Z 1612/1712 34009KT P6SM -SN BKN035
     FM161500 33012G18KT P6SM BKN025
     FM162300 32008KT P6SM SCT035
     FM170300 31004KT P6SM SKC=

USA.gov is the U.S. government's official web portal to all federal, state and local government web resources and services.